Time;durP1;ratioP1;P1;durP2;ratioP2;P2;SDS_P1;SDS_P2;PMS_P1;PMS_P2;Temp;Humidity;BMP_temperature;BMP_pressure;BME280_temperature;BME280_humidity;BME280_pressure;Samples;Min_cycle;Max_cycle;Signal;HPM_P1;HPM_P2
2022/04/17 00:01:36;;;;;;;20.75;11.02;;;;;;;5.53;100.00;102059.69;5099613;28;20476;-47
2022/04/17 00:04:02;;;;;;;18.15;10.35;;;;;;;5.48;100.00;102056.56;5107960;28;20039;-47
2022/04/17 00:06:28;;;;;;;21.58;12.07;;;;;;;5.42;100.00;102054.41;5097111;28;20035;-47
2022/04/17 00:08:53;;;;;;;16.83;10.07;;;;;;;5.35;100.00;102053.22;5089578;28;20157;-47
2022/04/17 00:11:19;;;;;;;22.92;12.05;;;;;;;5.33;100.00;102045.44;5106194;28;20106;-50
2022/04/17 00:13:44;;;;;;;23.52;12.85;;;;;;;5.29;100.00;102049.25;5099504;28;20396;-50
2022/04/17 00:16:10;;;;;;;26.67;12.75;;;;;;;5.24;100.00;102046.16;5097938;28;20039;-47
2022/04/17 00:18:35;;;;;;;22.90;12.23;;;;;;;5.17;100.00;102044.94;5099570;28;20080;-47
2022/04/17 00:21:02;;;;;;;24.92;12.23;;;;;;;5.10;100.00;102041.09;5099368;28;20115;-47
2022/04/17 00:23:27;;;;;;;24.00;11.35;;;;;;;5.05;100.00;102030.94;5103426;28;20186;-51
2022/04/17 00:25:52;;;;;;;21.10;11.48;;;;;;;4.99;100.00;102034.88;5101890;28;20126;-51
2022/04/17 00:28:18;;;;;;;20.08;11.25;;;;;;;4.94;100.00;102037.00;5107984;28;20019;-47
2022/04/17 00:30:43;;;;;;;22.95;14.20;;;;;;;4.91;100.00;102036.41;5106457;28;20032;-48
2022/04/17 00:33:08;;;;;;;23.73;11.73;;;;;;;4.90;100.00;102026.84;5095284;28;20372;-48
2022/04/17 00:35:34;;;;;;;22.50;13.20;;;;;;;4.86;100.00;102023.63;5100435;28;20020;-48
2022/04/17 00:37:59;;;;;;;21.80;12.88;;;;;;;4.82;100.00;102032.69;5095797;28;20063;-49
2022/04/17 00:40:25;;;;;;;19.00;10.77;;;;;;;4.78;100.00;102018.94;5106114;28;20453;-51
2022/04/17 00:42:50;;;;;;;26.17;13.05;;;;;;;4.70;100.00;102017.81;5104904;28;20031;-48
2022/04/17 00:45:16;;;;;;;18.80;10.10;;;;;;;4.67;100.00;102015.44;5102881;28;20020;-47
2022/04/17 00:47:41;;;;;;;24.30;12.50;;;;;;;4.66;100.00;102009.34;5100931;28;20024;-48
2022/04/17 00:50:07;;;;;;;24.92;14.35;;;;;;;4.59;100.00;102010.75;5099745;28;20039;-50
2022/04/17 00:52:33;;;;;;;25.08;13.27;;;;;;;4.51;100.00;102005.22;5101577;28;20034;-48
2022/04/17 00:55:02;;;;;;;26.55;11.90;;;;;;;4.47;100.00;102004.63;5098969;28;20032;-49
2022/04/17 00:57:29;;;;;;;26.67;12.77;;;;;;;4.45;100.00;102005.69;5101432;28;20103;-47
2022/04/17 00:59:56;;;;;;;22.83;12.95;;;;;;;4.38;100.00;101997.44;5102753;28;20020;-49
2022/04/17 01:02:21;;;;;;;24.60;13.63;;;;;;;4.34;100.00;102002.06;5104126;28;20162;-51
2022/04/17 01:04:48;;;;;;;23.20;12.70;;;;;;;4.30;100.00;101994.53;5091526;28;20111;-50
2022/04/17 01:07:15;;;;;;;24.73;13.63;;;;;;;4.24;100.00;101998.44;5091714;28;20135;-50
2022/04/17 01:09:43;;;;;;;23.55;13.57;;;;;;;4.20;100.00;101985.66;5106860;28;20024;-51
2022/04/17 01:12:10;;;;;;;22.10;12.13;;;;;;;4.22;100.00;101994.25;5104679;28;20023;-48
2022/04/17 01:14:45;;;;;;;28.58;15.27;;;;;;;4.21;100.00;101976.81;5096049;28;20043;-49
2022/04/17 01:17:12;;;;;;;26.67;13.05;;;;;;;4.15;100.00;101973.69;5095517;28;20059;-50
2022/04/17 01:19:39;;;;;;;20.27;11.77;;;;;;;4.11;100.00;101974.06;5097937;28;20046;-52
2022/04/17 01:22:14;;;;;;;19.88;12.70;;;;;;;4.09;100.00;101975.94;5089071;28;20023;-46
2022/04/17 01:27:25;;;;;;;23.92;13.15;;;;;;;3.94;100.00;101973.47;5097135;28;20392;-47
2022/04/17 01:29:51;;;;;;;24.05;12.75;;;;;;;3.88;100.00;101976.56;5097417;28;20039;-47
2022/04/17 01:32:17;;;;;;;28.00;14.27;;;;;;;3.86;100.00;101972.38;5100351;28;20032;-47
2022/04/17 01:34:43;;;;;;;24.58;12.77;;;;;;;3.79;100.00;101969.31;5097059;28;20038;-46
2022/04/17 01:37:09;;;;;;;29.35;14.45;;;;;;;3.75;100.00;101969.69;5093786;28;20114;-47
2022/04/17 01:39:35;;;;;;;30.08;14.93;;;;;;;3.70;100.00;101970.84;5102296;28;20143;-48
2022/04/17 01:42:00;;;;;;;27.65;13.48;;;;;;;3.67;100.00;101976.31;5105669;28;20039;-46
2022/04/17 01:44:28;;;;;;;24.90;13.35;;;;;;;3.64;100.00;101967.81;5106796;28;20035;-46
2022/04/17 01:46:54;;;;;;;26.55;13.95;;;;;;;3.64;100.00;101959.94;5057833;28;20031;-49
2022/04/17 01:49:19;;;;;;;27.40;14.93;;;;;;;3.59;100.00;101955.03;5097009;28;20414;-47
2022/04/17 01:51:48;;;;;;;23.48;13.50;;;;;;;3.56;100.00;101957.03;5098502;28;20039;-51
2022/04/17 01:54:15;;;;;;;27.42;13.88;;;;;;;3.51;100.00;101954.72;5104267;28;20036;-47
2022/04/17 01:56:42;;;;;;;26.95;13.07;;;;;;;3.45;100.00;101952.53;5102512;28;20028;-48
2022/04/17 01:59:09;;;;;;;25.90;13.93;;;;;;;3.41;100.00;101951.94;5106785;28;20046;-47
2022/04/17 02:01:35;;;;;;;24.60;13.52;;;;;;;3.40;100.00;101952.03;5103796;28;20035;-49
2022/04/17 02:04:01;;;;;;;27.15;13.63;;;;;;;3.36;100.00;101947.97;5106023;28;20031;-47
2022/04/17 02:06:27;;;;;;;31.63;14.20;;;;;;;3.33;100.00;101949.03;5094416;28;20027;-47
2022/04/17 02:08:53;;;;;;;26.05;14.13;;;;;;;3.32;100.00;101943.88;5104261;28;20035;-47
2022/04/17 02:11:19;;;;;;;28.23;14.63;;;;;;;3.30;100.00;101933.47;5099234;28;20028;-47
2022/04/17 02:13:45;;;;;;;25.60;14.88;;;;;;;3.30;100.00;101935.28;5107031;28;20062;-47
2022/04/17 02:16:11;;;;;;;27.35;15.13;;;;;;;3.28;100.00;101931.00;5106603;28;20091;-47
2022/04/17 02:18:36;;;;;;;25.98;13.50;;;;;;;3.27;100.00;101931.91;5106446;28;20027;-46
2022/04/17 02:21:02;;;;;;;23.02;11.85;;;;;;;3.25;100.00;101936.44;5101050;28;20031;-47
2022/04/17 02:23:27;;;;;;;31.02;15.90;;;;;;;3.20;100.00;101925.44;5097112;28;20392;-47
2022/04/17 02:25:53;;;;;;;28.75;14.20;;;;;;;3.15;100.00;101921.44;5101050;28;20077;-46
2022/04/17 02:28:18;;;;;;;25.77;13.25;;;;;;;3.12;100.00;101919.88;5101299;28;20047;-47
2022/04/17 02:30:44;;;;;;;34.78;14.52;;;;;;;3.12;100.00;101912.03;5103066;28;20036;-48
2022/04/17 02:33:10;;;;;;;33.60;16.40;;;;;;;3.10;100.00;101924.41;5088393;28;20042;-47
2022/04/17 02:35:36;;;;;;;26.67;14.25;;;;;;;3.10;100.00;101915.69;5102363;28;20023;-47
2022/04/17 02:38:01;;;;;;;36.90;14.98;;;;;;;3.05;100.00;101908.19;5100183;28;20494;-49
2022/04/17 02:40:27;;;;;;;29.75;14.57;;;;;;;3.00;100.00;101915.53;5099632;28;20059;-51
2022/04/17 02:42:55;;;;;;;27.67;15.48;;;;;;;2.97;100.00;101906.09;5104272;28;20055;-48
2022/04/17 02:45:20;;;;;;;31.67;15.05;;;;;;;2.96;100.00;101919.28;5101156;28;20434;-49
2022/04/17 02:47:46;;;;;;;32.00;15.98;;;;;;;2.95;100.00;101915.84;5103728;28;20092;-48
2022/04/17 02:50:17;;;;;;;28.75;14.65;;;;;;;2.93;100.00;101911.66;5104668;28;20019;-49
2022/04/17 02:52:43;;;;;;;29.52;14.35;;;;;;;2.91;100.00;101913.53;5093557;28;20526;-47
2022/04/17 02:55:09;;;;;;;28.25;14.90;;;;;;;2.91;100.00;101916.13;5098379;28;20291;-47
2022/04/17 02:57:35;;;;;;;28.73;14.75;;;;;;;2.86;100.00;101913.84;5105212;28;20024;-50
2022/04/17 03:00:00;;;;;;;29.23;14.27;;;;;;;2.84;100.00;101911.34;5097587;28;20038;-53
2022/04/17 03:07:54;;;;;;;31.75;15.10;;;;;;;2.70;100.00;101903.56;5099548;28;20579;-47
2022/04/17 03:10:20;;;;;;;30.40;14.73;;;;;;;2.65;100.00;101905.66;5099120;28;20055;-48
2022/04/17 03:12:46;;;;;;;24.55;12.77;;;;;;;2.61;100.00;101910.28;5097940;28;20040;-47
2022/04/17 03:15:11;;;;;;;29.13;14.85;;;;;;;2.61;100.00;101901.59;5095266;28;20059;-48
2022/04/17 03:17:37;;;;;;;32.42;14.65;;;;;;;2.59;100.00;101901.69;5098662;28;20043;-46
2022/04/17 03:20:03;;;;;;;25.30;12.98;;;;;;;2.55;100.00;101902.00;5100344;28;20490;-46
2022/04/17 03:22:29;;;;;;;37.15;16.35;;;;;;;2.53;100.00;101891.66;5096157;28;20127;-46
2022/04/17 03:24:54;;;;;;;35.05;15.30;;;;;;;2.49;100.00;101898.03;5103972;28;20126;-49
2022/04/17 03:27:19;;;;;;;29.95;15.43;;;;;;;2.48;100.00;101888.50;5104902;28;20035;-47
2022/04/17 03:29:45;;;;;;;31.75;15.13;;;;;;;2.43;100.00;101889.72;5098178;28;20114;-48
2022/04/17 03:32:10;;;;;;;29.27;16.83;;;;;;;2.40;100.00;101881.16;5105497;28;20032;-47
2022/04/17 03:34:36;;;;;;;29.45;14.32;;;;;;;2.41;100.00;101887.22;5100771;28;20031;-47
2022/04/17 03:37:03;;;;;;;29.55;14.80;;;;;;;2.39;100.00;101895.19;5102211;28;20019;-47
2022/04/17 03:39:28;;;;;;;30.83;14.70;;;;;;;2.35;100.00;101883.25;5100968;28;20074;-46
2022/04/17 03:41:53;;;;;;;30.27;15.50;;;;;;;2.31;100.00;101884.38;5103883;28;20286;-50
2022/04/17 03:44:19;;;;;;;33.50;16.88;;;;;;;2.30;100.00;101882.72;5103676;28;20135;-46
2022/04/17 03:46:45;;;;;;;30.38;14.73;;;;;;;2.29;100.00;101878.41;5103787;28;20115;-49
2022/04/17 03:49:11;;;;;;;29.40;14.20;;;;;;;2.27;100.00;101876.84;5099707;28;20038;-49
2022/04/17 03:51:36;;;;;;;28.85;14.32;;;;;;;2.25;100.00;101882.19;5103529;28;20032;-52
2022/04/17 03:54:02;;;;;;;35.35;14.13;;;;;;;2.21;100.00;101875.47;5098199;28;20027;-47
2022/04/17 03:56:27;;;;;;;30.88;14.77;;;;;;;2.18;100.00;101870.44;5102832;28;20484;-50
2022/04/17 03:58:53;;;;;;;27.73;14.10;;;;;;;2.14;100.00;101863.72;5097154;28;20385;-48
2022/04/17 04:01:18;;;;;;;27.77;14.90;;;;;;;2.13;100.00;101862.06;5094036;28;20110;-47
2022/04/17 04:03:43;;;;;;;27.13;13.23;;;;;;;2.12;100.00;101863.03;5107050;28;20046;-52
2022/04/17 04:06:10;;;;;;;35.53;15.30;;;;;;;2.08;100.00;101864.16;5091530;28;20105;-48
2022/04/17 04:08:36;;;;;;;28.98;14.98;;;;;;;2.06;100.00;101858.19;5094041;28;20059;-48
2022/04/17 04:11:01;;;;;;;28.23;13.77;;;;;;;2.03;100.00;101864.44;5097977;28;20036;-53
2022/04/17 04:13:26;;;;;;;28.13;14.10;;;;;;;2.03;100.00;101866.22;5085213;28;20024;-48
2022/04/17 04:15:55;;;;;;;28.70;13.52;;;;;;;2.01;100.00;101860.25;5094498;28;20028;-48
2022/04/17 04:18:20;;;;;;;29.58;15.10;;;;;;;1.95;100.00;101862.34;5100277;28;20396;-47
2022/04/17 04:20:46;;;;;;;28.38;13.38;;;;;;;1.91;100.00;101858.28;5098598;28;20031;-46
2022/04/17 04:23:11;;;;;;;22.25;11.95;;;;;;;1.88;100.00;101861.06;5102182;28;20035;-46
2022/04/17 04:25:36;;;;;;;27.58;13.20;;;;;;;1.85;100.00;101856.03;5099052;28;20016;-46
2022/04/17 04:30:45;;;;;;;34.58;15.00;;;;;;;1.84;100.00;101856.16;5097839;28;20038;-47
2022/04/17 04:33:11;;;;;;;32.72;15.65;;;;;;;1.83;100.00;101859.69;5110968;28;20039;-48
2022/04/17 04:35:37;;;;;;;29.23;14.40;;;;;;;1.82;100.00;101855.41;5100134;28;20020;-46
2022/04/17 04:38:02;;;;;;;30.52;16.15;;;;;;;1.82;100.00;101858.03;5104010;28;20052;-49
2022/04/17 04:40:29;;;;;;;29.15;13.25;;;;;;;1.77;100.00;101853.09;5097497;28;20140;-45
2022/04/17 04:43:02;;;;;;;32.60;15.35;;;;;;;1.76;100.00;101848.81;5106273;28;20038;-48
2022/04/17 04:48:12;;;;;;;24.35;12.05;;;;;;;1.71;100.00;101845.66;5096442;28;20089;-49
2022/04/17 04:50:38;;;;;;;28.27;14.75;;;;;;;1.70;100.00;101842.22;5094783;28;20110;-47
2022/04/17 04:53:03;;;;;;;24.77;13.27;;;;;;;1.69;100.00;101837.91;5106695;28;20106;-47
2022/04/17 04:55:29;;;;;;;29.35;14.82;;;;;;;1.67;100.00;101841.56;5101437;28;20035;-53
2022/04/17 04:57:54;;;;;;;40.33;15.27;;;;;;;1.64;100.00;101832.13;5094114;28;20036;-46
2022/04/17 05:00:19;;;;;;;32.17;16.42;;;;;;;1.62;100.00;101831.38;5100117;28;20160;-50
2022/04/17 05:02:45;;;;;;;34.55;14.82;;;;;;;1.64;100.00;101831.31;5104861;28;20151;-49
2022/04/17 05:05:10;;;;;;;29.67;12.95;;;;;;;1.63;100.00;101835.69;5099409;28;20384;-48
2022/04/17 05:07:37;;;;;;;32.58;14.25;;;;;;;1.63;100.00;101832.25;5099305;28;20078;-48
2022/04/17 05:10:03;;;;;;;33.63;16.23;;;;;;;1.65;100.00;101822.50;5100115;28;20036;-46
2022/04/17 05:12:29;;;;;;;40.38;17.65;;;;;;;1.64;100.00;101826.91;5103264;28;20032;-48
2022/04/17 05:14:54;;;;;;;31.77;14.25;;;;;;;1.65;100.00;101830.34;5101098;28;20124;-46
2022/04/17 05:17:20;;;;;;;35.58;14.38;;;;;;;1.65;100.00;101820.75;5100319;28;20091;-46
2022/04/17 05:19:45;;;;;;;29.33;14.70;;;;;;;1.66;100.00;101822.41;5107085;28;20051;-47
2022/04/17 05:22:15;;;;;;;27.67;13.02;;;;;;;1.66;100.00;101819.81;5102098;28;20032;-46
2022/04/17 05:24:42;;;;;;;33.38;15.35;;;;;;;1.68;100.00;101819.72;5089243;28;20035;-51
2022/04/17 05:27:07;;;;;;;32.92;14.05;;;;;;;1.67;100.00;101820.63;5105258;28;20028;-47
2022/04/17 05:29:32;;;;;;;29.05;14.27;;;;;;;1.69;100.00;101819.59;5100767;28;20088;-47
2022/04/17 05:31:59;;;;;;;34.00;16.20;;;;;;;1.70;100.00;101818.69;5100895;28;20472;-47
2022/04/17 05:34:24;;;;;;;34.25;14.23;;;;;;;1.72;100.00;101813.31;5095612;28;20034;-47
2022/04/17 05:36:49;;;;;;;37.20;16.67;;;;;;;1.74;100.00;101809.69;5105031;28;20027;-47
2022/04/17 05:39:15;;;;;;;30.05;14.05;;;;;;;1.79;100.00;101806.75;5107731;28;20193;-50
2022/04/17 05:41:41;;;;;;;29.17;13.95;;;;;;;1.84;100.00;101809.06;5102754;28;20023;-49
2022/04/17 05:44:07;;;;;;;37.80;14.27;;;;;;;1.90;100.00;101806.03;5096856;28;20032;-48
2022/04/17 05:46:35;;;;;;;31.77;14.57;;;;;;;1.96;100.00;101809.09;5099172;28;20058;-50
2022/04/17 05:49:02;;;;;;;34.60;16.05;;;;;;;2.02;100.00;101805.22;5104977;28;20035;-47
2022/04/17 05:51:28;;;;;;;27.38;13.13;;;;;;;2.08;100.00;101806.59;5100545;28;20104;-46
2022/04/17 05:53:53;;;;;;;27.38;14.18;;;;;;;2.13;100.00;101812.34;5099924;28;20024;-49
2022/04/17 05:56:18;;;;;;;27.60;15.52;;;;;;;2.21;100.00;101804.81;5101840;28;20456;-50
2022/04/17 05:58:44;;;;;;;30.30;14.77;;;;;;;2.29;100.00;101799.88;5106409;28;20031;-48
2022/04/17 06:01:09;;;;;;;30.27;15.63;;;;;;;2.40;100.00;101809.63;5102471;28;20039;-48
2022/04/17 06:03:34;;;;;;;31.13;15.25;;;;;;;2.47;100.00;101794.34;5100719;28;20024;-50
2022/04/17 06:06:00;;;;;;;31.20;16.38;;;;;;;2.55;100.00;101794.63;5108001;28;20544;-46
2022/04/17 06:08:27;;;;;;;34.55;15.75;;;;;;;2.65;100.00;101800.91;5105356;28;20503;-49
2022/04/17 06:10:52;;;;;;;36.40;17.50;;;;;;;2.73;100.00;101795.97;5098829;28;20069;-49
2022/04/17 06:13:18;;;;;;;34.33;17.38;;;;;;;2.81;100.00;101791.06;5100228;28;20024;-47
2022/04/17 06:15:43;;;;;;;39.53;17.25;;;;;;;2.88;100.00;101793.22;5092902;28;20454;-47
2022/04/17 06:18:09;;;;;;;37.85;16.35;;;;;;;2.94;100.00;101801.47;5090538;28;20023;-52
2022/04/17 06:20:34;;;;;;;36.55;17.38;;;;;;;3.01;100.00;101797.47;5100737;28;20024;-50
2022/04/17 06:22:59;;;;;;;33.33;16.42;;;;;;;3.10;100.00;101796.00;5098045;28;20394;-48
2022/04/17 06:25:25;;;;;;;38.17;19.92;;;;;;;3.17;100.00;101794.59;5082661;28;20034;-47
2022/04/17 06:27:50;;;;;;;37.45;18.30;;;;;;;3.26;100.00;101793.09;5098799;28;20040;-46
2022/04/17 06:30:18;;;;;;;36.67;19.45;;;;;;;3.37;100.00;101793.16;5097477;28;20521;-46
2022/04/17 06:32:44;;;;;;;32.75;17.05;;;;;;;3.49;100.00;101791.44;5099033;28;20039;-46
2022/04/17 06:35:11;;;;;;;35.72;18.92;;;;;;;3.61;100.00;101785.25;5096546;28;20435;-47
2022/04/17 06:37:50;;;;;;;37.28;18.17;;;;;;;3.72;100.00;101792.34;5107009;28;20429;-49
2022/04/17 06:40:22;;;;;;;32.65;16.48;;;;;;;3.79;100.00;101790.09;5095894;28;20028;-47
2022/04/17 06:42:49;;;;;;;40.28;21.85;;;;;;;3.88;100.00;101784.16;5094919;28;20024;-49
2022/04/17 06:45:16;;;;;;;38.70;19.13;;;;;;;3.99;100.00;101781.56;5098420;28;20520;-48
2022/04/17 06:47:42;;;;;;;38.38;20.45;;;;;;;4.13;100.00;101781.34;5095906;28;20277;-49
2022/04/17 06:50:07;;;;;;;37.40;17.13;;;;;;;4.25;100.00;101781.34;5099725;28;21393;-48
2022/04/17 06:52:33;;;;;;;34.08;17.75;;;;;;;4.35;100.00;101777.06;5100260;28;20023;-52
2022/04/17 06:54:58;;;;;;;34.95;16.88;;;;;;;4.45;100.00;101775.41;5104988;28;20041;-47
2022/04/17 06:57:28;;;;;;;39.50;20.50;;;;;;;4.54;100.00;101777.31;5100086;28;20093;-50
2022/04/17 06:59:53;;;;;;;32.20;18.92;;;;;;;4.64;100.00;101779.22;5102986;28;20107;-47
2022/04/17 07:02:19;;;;;;;37.65;20.60;;;;;;;4.76;100.00;101775.63;5102878;28;20118;-46
2022/04/17 07:04:44;;;;;;;38.75;19.27;;;;;;;4.91;100.00;101768.31;5101256;28;20388;-51
2022/04/17 07:07:09;;;;;;;38.92;17.90;;;;;;;5.08;100.00;101766.94;5099431;28;20032;-48
2022/04/17 07:09:35;;;;;;;38.85;18.98;;;;;;;5.25;100.00;101753.28;5097006;28;20028;-51
2022/04/17 07:12:00;;;;;;;34.03;19.08;;;;;;;5.43;100.00;101767.56;5094435;28;20081;-48
2022/04/17 07:14:26;;;;;;;34.70;17.52;;;;;;;5.59;100.00;101761.03;5095906;28;20040;-48
2022/04/17 07:16:51;;;;;;;29.88;17.52;;;;;;;5.75;100.00;101760.59;5097943;28;20559;-49
2022/04/17 07:19:16;;;;;;;32.03;18.33;;;;;;;5.92;100.00;101760.00;5097573;28;20512;-52
2022/04/17 07:21:42;;;;;;;37.22;20.23;;;;;;;6.11;100.00;101760.13;5094329;28;20031;-47
2022/04/17 07:24:07;;;;;;;36.92;18.48;;;;;;;6.30;100.00;101751.53;5096295;28;20027;-47
2022/04/17 07:26:33;;;;;;;37.13;18.88;;;;;;;6.53;100.00;101743.41;5091723;28;20395;-47
2022/04/17 07:28:58;;;;;;;41.10;19.70;;;;;;;6.77;100.00;101740.44;5098248;28;20032;-46
2022/04/17 07:31:24;;;;;;;39.03;19.48;;;;;;;7.00;100.00;101741.03;5097920;28;20023;-51
2022/04/17 07:33:50;;;;;;;35.45;19.40;;;;;;;7.26;100.00;101737.88;5096960;28;20036;-47
2022/04/17 07:36:15;;;;;;;37.05;18.98;;;;;;;7.49;100.00;101738.44;5098005;28;20047;-47
2022/04/17 07:38:40;;;;;;;36.00;19.55;;;;;;;7.70;100.00;101735.63;5095903;28;20030;-48
2022/04/17 07:41:06;;;;;;;39.97;21.00;;;;;;;7.94;100.00;101735.16;5092595;28;20035;-49
2022/04/17 07:43:32;;;;;;;42.08;20.73;;;;;;;8.23;100.00;101713.91;5096361;28;20036;-50
2022/04/17 07:45:58;;;;;;;36.28;18.42;;;;;;;8.57;100.00;101710.72;5095658;28;20114;-48
2022/04/17 07:48:24;;;;;;;36.40;19.02;;;;;;;8.92;100.00;101710.75;5103109;28;20084;-48
2022/04/17 07:50:52;;;;;;;34.22;17.65;;;;;;;9.17;100.00;101708.38;5110861;28;20024;-46
2022/04/17 07:53:17;;;;;;;31.05;16.27;;;;;;;9.41;100.00;101691.03;5101364;28;20016;-49
2022/04/17 07:55:43;;;;;;;33.90;17.65;;;;;;;9.63;100.00;101679.09;5104110;28;20028;-49
2022/04/17 07:58:16;;;;;;;28.63;17.52;;;;;;;9.80;100.00;101684.34;5102495;28;20384;-49
2022/04/17 08:00:57;;;;;;;30.65;17.50;;;;;;;10.01;100.00;101669.88;5105353;28;20027;-46
2022/04/17 08:03:37;;;;;;;;;;;;;;;10.19;100.00;101669.78;5103441;28;20024;-46
2022/04/17 08:06:07;;;;;;;28.88;15.48;;;;;;;10.33;100.00;101668.41;5104286;28;19926;-48
2022/04/17 08:08:37;;;;;;;29.20;16.02;;;;;;;10.47;100.00;101665.94;5105195;28;20494;-51
2022/04/17 08:11:04;;;;;;;26.13;15.63;;;;;;;10.55;100.00;101657.19;5081215;28;20028;-49
2022/04/17 08:13:29;;;;;;;30.55;15.85;;;;;;;10.59;100.00;101655.88;5094070;28;20032;-48
2022/04/17 08:15:54;;;;;;;33.85;15.80;;;;;;;10.67;100.00;101653.25;5102622;28;20031;-49
2022/04/17 08:18:20;;;;;;;28.73;15.95;;;;;;;10.82;100.00;101644.66;5099825;28;20043;-52
2022/04/17 08:20:45;;;;;;;25.52;16.25;;;;;;;10.99;100.00;101648.97;5104494;28;20036;-47
2022/04/17 08:23:11;;;;;;;32.75;16.17;;;;;;;11.22;100.00;101640.34;5107418;28;20055;-48
2022/04/17 08:25:37;;;;;;;23.80;13.77;;;;;;;11.40;100.00;101642.81;5094534;28;20096;-48
2022/04/17 08:28:03;;;;;;;25.83;15.68;;;;;;;11.54;100.00;101634.19;5099993;28;20038;-50
2022/04/17 08:30:30;;;;;;;29.00;17.05;;;;;;;11.64;100.00;101641.94;5102813;28;20110;-47
2022/04/17 08:33:01;;;;;;;22.52;12.57;;;;;;;11.76;100.00;101625.47;5104267;28;20528;-47
2022/04/17 08:35:27;;;;;;;24.90;13.98;;;;;;;11.77;100.00;101619.16;5094479;28;20093;-48
2022/04/17 08:37:54;;;;;;;23.45;12.60;;;;;;;11.93;100.00;101628.94;5089803;28;20539;-52
2022/04/17 08:40:19;;;;;;;26.35;14.38;;;;;;;12.02;100.00;101628.91;5077919;28;20102;-47
2022/04/17 08:42:45;;;;;;;24.20;14.55;;;;;;;12.08;100.00;101629.06;5101258;28;20043;-47
2022/04/17 08:45:12;;;;;;;24.33;12.80;;;;;;;12.16;100.00;101629.00;5098414;28;20031;-53
2022/04/17 08:47:39;;;;;;;20.45;13.20;;;;;;;12.29;100.00;101628.44;5099927;28;20408;-48
2022/04/17 08:50:10;;;;;;;18.35;12.35;;;;;;;12.41;100.00;101620.88;5090026;28;20363;-46
2022/04/17 08:52:37;;;;;;;24.80;12.95;;;;;;;12.61;100.00;101626.59;5094167;28;20122;-51
2022/04/17 08:55:03;;;;;;;22.42;12.50;;;;;;;12.68;100.00;101616.09;5098665;28;20062;-49
2022/04/17 08:57:29;;;;;;;21.83;12.20;;;;;;;12.74;100.00;101608.22;5094136;28;20032;-49
2022/04/17 08:59:54;;;;;;;18.92;11.38;;;;;;;12.83;100.00;101604.50;5102934;28;20071;-49
2022/04/17 09:02:20;;;;;;;17.80;10.82;;;;;;;12.95;100.00;101612.88;5090251;28;20052;-49
2022/04/17 09:04:46;;;;;;;18.52;12.55;;;;;;;13.07;100.00;101606.13;5099175;28;20032;-47
2022/04/17 09:07:12;;;;;;;19.30;11.35;;;;;;;13.17;100.00;101597.06;5096235;28;20411;-50
2022/04/17 09:09:48;;;;;;;18.50;11.10;;;;;;;13.28;100.00;101599.31;5104796;28;20451;-50
2022/04/17 09:12:22;;;;;;;19.67;10.90;;;;;;;13.34;100.00;101597.75;5092982;28;20172;-52
2022/04/17 09:14:48;;;;;;;18.27;10.90;;;;;;;13.44;100.00;101592.97;5084665;28;20386;-53
2022/04/17 09:17:15;;;;;;;15.77;10.07;;;;;;;13.59;100.00;101587.66;5089194;28;20468;-50
2022/04/17 09:19:41;;;;;;;15.35;10.23;;;;;;;13.78;100.00;101586.25;5087648;28;20080;-49
2022/04/17 09:22:07;;;;;;;18.85;11.15;;;;;;;13.91;100.00;101583.75;5104260;28;20498;-47
2022/04/17 09:24:37;;;;;;;12.27;8.68;;;;;;;14.08;100.00;101582.53;5100990;28;20393;-48
2022/04/17 09:27:04;;;;;;;16.38;10.40;;;;;;;14.31;100.00;101578.91;5090139;28;20205;-50
2022/04/17 09:29:36;;;;;;;13.20;8.70;;;;;;;14.48;100.00;101571.47;5082083;28;20032;-50
2022/04/17 09:32:06;;;;;;;13.95;8.82;;;;;;;14.65;100.00;101574.75;5099129;28;20531;-48
2022/04/17 09:35:00;;;;;;;12.65;7.63;;;;;;;14.86;100.00;101572.06;5106215;28;20036;-49
2022/04/17 09:37:29;;;;;;;11.60;7.53;;;;;;;14.93;100.00;101566.78;5074405;28;20853;-47
2022/04/17 09:40:07;;;;;;;8.82;6.03;;;;;;;15.02;100.00;101568.28;5101797;28;20483;-49
2022/04/17 09:42:32;;;;;;;12.82;6.68;;;;;;;15.16;100.00;101558.53;5092400;28;20024;-50
2022/04/17 09:44:57;;;;;;;11.57;6.88;;;;;;;15.29;100.00;101557.81;5090156;28;20540;-49
2022/04/17 09:47:26;;;;;;;10.07;6.78;;;;;;;15.26;100.00;101549.16;5093317;28;20036;-49
2022/04/17 09:49:56;;;;;;;14.30;6.43;;;;;;;15.30;100.00;101554.09;5100080;28;20032;-48
2022/04/17 09:52:23;;;;;;;8.40;5.50;;;;;;;15.47;100.00;101537.56;5100503;28;20500;-48
2022/04/17 09:54:49;;;;;;;9.50;6.28;;;;;;;15.59;100.00;101537.84;5089612;28;20029;-50
2022/04/17 09:57:32;;;;;;;8.48;6.43;;;;;;;15.59;100.00;101531.63;5093679;28;20035;-52
2022/04/17 10:00:06;;;;;;;7.43;5.65;;;;;;;15.79;100.00;101527.22;5096412;28;20055;-50
2022/04/17 10:02:32;;;;;;;9.77;5.43;;;;;;;15.92;100.00;101523.78;5102394;28;20106;-48
2022/04/17 10:04:59;;;;;;;8.45;6.10;;;;;;;16.13;100.00;101526.34;5092077;28;20391;-51
2022/04/17 10:07:25;;;;;;;7.45;5.05;;;;;;;16.28;100.00;101512.75;5088221;28;20360;-48
2022/04/17 10:09:51;;;;;;;7.20;5.53;;;;;;;16.33;100.00;101512.97;5097967;28;20843;-50
2022/04/17 10:12:19;;;;;;;7.55;5.55;;;;;;;16.46;100.00;101511.34;5092315;28;20571;-49
2022/04/17 10:14:48;;;;;;;10.20;5.50;;;;;;;16.55;100.00;101504.78;5098299;28;20039;-51
2022/04/17 10:17:14;;;;;;;5.63;4.28;;;;;;;16.58;100.00;101501.69;5090836;28;20538;-56
2022/04/17 10:19:41;;;;;;;9.13;4.88;;;;;;;16.63;100.00;101496.53;5095593;28;20055;-51
2022/04/17 10:22:09;;;;;;;6.97;4.13;;;;;;;16.78;100.00;101485.66;5087820;28;20384;-51
2022/04/17 10:24:37;;;;;;;5.43;3.58;;;;;;;16.97;100.00;101484.78;5094832;28;20109;-50
2022/04/17 10:27:04;;;;;;;5.85;3.85;;;;;;;17.10;100.00;101485.78;5097356;28;20035;-58
2022/04/17 10:29:48;;;;;;;6.80;2.50;;;;;;;17.12;100.00;101481.88;5095353;28;20032;-48
2022/04/17 10:32:28;;;;;;;5.00;3.30;;;;;;;17.13;100.00;101475.47;5099586;28;20027;-50
2022/04/17 10:35:32;;;;;;;2.72;2.53;;;;;;;17.11;100.00;101469.47;5091102;28;20691;-52
2022/04/17 10:38:18;;;;;;;2.78;2.22;;;;;;;17.10;100.00;101459.00;5098360;28;20935;-51
2022/04/17 10:40:59;;;;;;;2.28;2.08;;;;;;;17.28;100.00;101461.00;5098160;28;20051;-50
2022/04/17 10:43:44;;;;;;;1.65;1.55;;;;;;;17.47;99.14;101446.69;5097885;28;20027;-49
2022/04/17 10:46:11;;;;;;;5.78;1.17;;;;;;;17.58;100.00;101453.22;5085880;28;20039;-50
2022/04/17 10:48:47;;;;;;;4.07;1.27;;;;;;;17.77;93.49;101443.47;5103484;28;20408;-51
2022/04/17 10:51:21;;;;;;;3.08;1.20;;;;;;;17.94;98.68;101441.09;5095046;28;20030;-47
2022/04/17 10:54:04;;;;;;;1.88;1.40;;;;;;;18.14;95.69;101435.59;5098426;28;20126;-52
2022/04/17 10:56:33;;;;;;;2.50;1.10;;;;;;;18.15;95.77;101429.19;5093076;28;20117;-53
2022/04/17 10:59:00;;;;;;;1.52;1.42;;;;;;;18.27;94.69;101427.44;5102437;28;20450;-51
2022/04/17 11:01:41;;;;;;;1.52;0.82;;;;;;;18.33;82.74;101413.16;5096708;28;20084;-51
2022/04/17 11:04:21;;;;;;;1.33;1.20;;;;;;;18.44;83.00;101412.44;5098455;28;20111;-53
2022/04/17 11:07:05;;;;;;;2.05;1.10;;;;;;;18.48;85.08;101402.91;5090923;28;20750;-50
2022/04/17 11:09:41;;;;;;;4.03;1.17;;;;;;;18.48;82.39;101400.22;5091465;28;20535;-47
2022/04/17 11:12:07;;;;;;;2.15;0.98;;;;;;;18.56;85.91;101393.75;5096895;28;20347;-52
2022/04/17 11:14:33;;;;;;;3.15;1.15;;;;;;;18.76;77.05;101393.53;5099906;28;20016;-58
2022/04/17 11:17:08;;;;;;;3.85;0.95;;;;;;;18.84;71.18;101395.94;5091926;28;20051;-52
2022/04/17 11:19:35;;;;;;;0.90;0.90;;;;;;;18.78;72.45;101380.72;5093736;28;20039;-52
2022/04/17 11:22:04;;;;;;;1.63;0.50;;;;;;;18.79;71.86;101379.66;5099829;28;20036;-52
2022/04/17 11:24:55;;;;;;;0.85;0.75;;;;;;;18.74;64.79;101380.31;5093408;28;20039;-50